Time;durP1;ratioP1;P1;durP2;ratioP2;P2;SDS_P1;SDS_P2;PMS_P1;PMS_P2;Temp;Humidity;BMP_temperature;BMP_pressure;BME280_temperature;BME280_humidity;BME280_pressure;Samples;Min_cycle;Max_cycle;Signal;HPM_P1;HPM_P2
2022/01/14 00:01:46;;;;;;;53.30;25.65;;;;;;;3.39;82.94;102330.63;5015169;28;20057;-82
2022/01/14 00:04:12;;;;;;;52.58;26.15;;;;;;;3.35;83.36;102333.88;5005312;28;20120;-82
2022/01/14 00:06:37;;;;;;;56.45;25.50;;;;;;;3.39;83.45;102334.13;5005318;28;20043;-81
2022/01/14 00:09:09;;;;;;;55.45;27.98;;;;;;;3.41;83.25;102321.16;5014357;28;20057;-81
2022/01/14 00:11:43;;;;;;;54.70;26.35;;;;;;;3.45;83.32;102310.03;5015745;28;20026;-81
2022/01/14 00:16:40;;;;;;;62.08;26.70;;;;;;;3.43;83.53;102315.22;5017653;28;20053;-81
2022/01/14 00:19:05;;;;;;;59.35;26.75;;;;;;;3.49;83.67;102306.78;5015841;28;20030;-79
2022/01/14 00:21:34;;;;;;;57.78;28.10;;;;;;;3.48;83.55;102307.59;5018063;28;20053;-81
2022/01/14 00:24:09;;;;;;;53.10;24.98;;;;;;;3.56;82.89;102314.09;5017702;28;20044;-81
2022/01/14 00:34:49;;;;;;;59.08;26.83;;;;;;;3.53;83.82;102307.84;5006118;28;20050;-81
2022/01/14 00:37:16;;;;;;;57.88;25.95;;;;;;;3.52;83.31;102306.94;5018237;28;20068;-81
2022/01/14 00:39:43;;;;;;;50.15;25.10;;;;;;;3.51;83.64;102305.13;5017308;28;20029;-81
2022/01/14 00:42:10;;;;;;;55.40;27.25;;;;;;;3.49;83.29;102306.78;5017666;28;20056;-81
2022/01/14 00:44:36;;;;;;;53.47;25.08;;;;;;;3.50;83.64;102313.78;5015736;28;20060;-81
2022/01/14 00:47:05;;;;;;;61.00;26.55;;;;;;;3.43;83.95;102301.22;5016479;28;20041;-81
2022/01/14 00:49:31;;;;;;;53.72;25.85;;;;;;;3.43;83.95;102306.44;5017460;28;20034;-81
2022/01/14 00:51:57;;;;;;;55.58;26.05;;;;;;;3.36;83.63;102294.81;5014151;28;20537;-80
2022/01/14 00:54:24;;;;;;;57.75;26.70;;;;;;;3.39;83.70;102289.75;5013961;28;20025;-79
2022/01/14 00:57:03;;;;;;;55.47;25.83;;;;;;;3.35;83.87;102287.78;5015162;28;20167;-80
2022/01/14 00:59:29;;;;;;;57.28;27.42;;;;;;;3.31;83.58;102293.69;5030001;28;20488;-80
2022/01/14 01:01:58;;;;;;;57.88;25.33;;;;;;;3.29;83.61;102303.16;5014348;28;20034;-80
2022/01/14 01:04:29;;;;;;;62.67;26.88;;;;;;;3.28;83.66;102301.38;5014060;28;20034;-80
2022/01/14 01:06:55;;;;;;;59.15;27.15;;;;;;;3.26;83.90;102308.22;5009619;28;20091;-81
2022/01/14 01:09:24;;;;;;;64.95;28.23;;;;;;;3.28;83.61;102298.75;5014948;28;20042;-81
2022/01/14 01:11:53;;;;;;;53.35;26.10;;;;;;;3.30;83.34;102302.31;5015959;28;20034;-82
2022/01/14 01:14:32;;;;;;;56.70;27.77;;;;;;;3.28;83.69;102302.25;5011880;28;20080;-83
2022/01/14 01:16:58;;;;;;;56.10;27.23;;;;;;;3.36;83.49;102313.09;5014136;28;20083;-82
2022/01/14 01:19:23;;;;;;;55.78;27.15;;;;;;;3.29;83.49;102324.91;5016660;28;20404;-82
2022/01/14 01:21:49;;;;;;;52.05;26.27;;;;;;;3.33;83.45;102326.00;5016458;28;20037;-81
2022/01/14 01:24:26;;;;;;;60.45;27.45;;;;;;;3.30;83.53;102325.81;5013572;28;20581;-81
2022/01/14 01:26:52;;;;;;;58.70;27.33;;;;;;;3.32;83.77;102332.00;5016722;28;20543;-81
2022/01/14 01:31:49;;;;;;;57.03;26.42;;;;;;;3.33;83.27;102328.59;5015636;28;20511;-81
2022/01/14 01:34:16;;;;;;;59.15;27.45;;;;;;;3.31;83.59;102311.97;5029425;28;20035;-81
2022/01/14 01:36:44;;;;;;;54.17;26.20;;;;;;;3.31;83.14;102317.19;5016040;28;20034;-80
2022/01/14 01:39:13;;;;;;;59.67;29.10;;;;;;;3.31;83.14;102322.41;5016705;28;20057;-82
2022/01/14 01:41:40;;;;;;;57.58;27.50;;;;;;;3.34;83.45;102317.31;5015329;28;20037;-82
2022/01/14 01:44:07;;;;;;;56.67;27.05;;;;;;;3.30;83.72;102317.97;5016272;28;20042;-82
2022/01/14 01:46:37;;;;;;;59.33;26.80;;;;;;;3.31;83.44;102309.34;5014979;28;20045;-81
2022/01/14 01:49:03;;;;;;;61.85;27.63;;;;;;;3.34;83.76;102314.72;5016394;28;20069;-81
2022/01/14 01:51:29;;;;;;;62.45;29.20;;;;;;;3.33;83.78;102312.94;5015097;28;20088;-81
2022/01/14 01:53:54;;;;;;;65.82;29.63;;;;;;;3.24;83.59;102315.94;5016168;28;20034;-81
2022/01/14 01:56:19;;;;;;;56.78;28.10;;;;;;;3.25;83.73;102311.66;5014510;28;20083;-81
2022/01/14 01:58:45;;;;;;;64.00;27.85;;;;;;;3.23;83.67;102300.22;5014873;28;20120;-81
2022/01/14 02:01:11;;;;;;;63.38;28.92;;;;;;;3.26;83.50;102311.72;5016120;28;20136;-81
2022/01/14 02:03:37;;;;;;;58.97;27.77;;;;;;;3.26;83.52;102303.00;5016765;28;20038;-81
2022/01/14 02:06:03;;;;;;;65.72;29.67;;;;;;;3.29;83.69;102310.97;5015840;28;20078;-80
2022/01/14 02:08:29;;;;;;;56.28;27.83;;;;;;;3.36;83.47;102320.91;5014184;28;20475;-81
2022/01/14 02:10:54;;;;;;;59.70;28.58;;;;;;;3.30;83.38;102307.53;5015881;28;20037;-82
2022/01/14 02:13:19;;;;;;;65.00;30.10;;;;;;;3.27;83.88;102302.16;5015894;28;20040;-81
2022/01/14 02:18:39;;;;;;;66.93;30.65;;;;;;;3.28;83.66;102293.53;5022849;28;20033;-80
2022/01/14 02:24:07;;;;;;;67.50;30.10;;;;;;;3.29;84.33;102295.31;5016231;28;20069;-81
2022/01/14 02:26:33;;;;;;;65.70;32.15;;;;;;;3.33;84.39;102293.75;5024361;28;20038;-82
2022/01/14 02:28:59;;;;;;;64.88;30.15;;;;;;;3.34;83.90;102291.22;5016017;28;20037;-81
2022/01/14 02:31:24;;;;;;;66.07;32.85;;;;;;;3.35;84.26;102300.84;5016112;28;20396;-81
2022/01/14 02:33:49;;;;;;;62.92;30.30;;;;;;;3.32;84.17;102282.41;5016023;28;20045;-81
2022/01/14 02:36:16;;;;;;;69.85;31.55;;;;;;;3.38;84.16;102272.31;5015617;28;20037;-82
2022/01/14 02:38:44;;;;;;;64.30;30.30;;;;;;;3.43;84.04;102275.13;5016243;28;20600;-81
2022/01/14 02:41:09;;;;;;;63.47;30.20;;;;;;;3.38;84.39;102269.69;5014120;28;20042;-81
2022/01/14 02:43:35;;;;;;;64.15;30.13;;;;;;;3.37;84.27;102269.63;5022729;28;20064;-82
2022/01/14 02:46:00;;;;;;;62.55;29.52;;;;;;;3.40;84.00;102269.75;5014419;28;20084;-81
2022/01/14 02:48:28;;;;;;;65.60;30.88;;;;;;;3.34;84.56;102266.84;5014938;28;20053;-81
2022/01/14 02:50:59;;;;;;;70.38;32.08;;;;;;;3.36;84.56;102258.28;5015407;28;20060;-81
2022/01/14 02:56:23;;;;;;;67.38;31.30;;;;;;;3.36;84.39;102253.06;5003945;28;20042;-81
2022/01/14 02:58:50;;;;;;;60.50;29.38;;;;;;;3.32;84.98;102250.22;5014968;28;20061;-81
2022/01/14 03:01:18;;;;;;;68.80;32.22;;;;;;;3.32;85.13;102258.94;5014169;28;20056;-81
2022/01/14 03:03:45;;;;;;;73.25;33.65;;;;;;;3.25;85.14;102249.03;5015272;28;20081;-81
2022/01/14 03:06:12;;;;;;;64.78;31.98;;;;;;;3.36;84.70;102241.75;5014379;28;20045;-80
2022/01/14 03:08:38;;;;;;;67.35;34.10;;;;;;;3.36;85.00;102250.44;5015553;28;20041;-81
2022/01/14 03:11:09;;;;;;;72.35;33.55;;;;;;;3.36;84.70;102257.41;5013795;28;20037;-81
2022/01/14 03:13:35;;;;;;;66.55;30.05;;;;;;;3.37;84.75;102254.84;5014879;28;20041;-81
2022/01/14 03:16:02;;;;;;;66.30;30.85;;;;;;;3.39;84.92;102250.59;5013764;28;20082;-80
2022/01/14 03:18:37;;;;;;;66.00;30.23;;;;;;;3.34;85.57;102245.97;5013944;28;20045;-82
2022/01/14 03:21:10;;;;;;;66.15;30.45;;;;;;;3.43;84.96;102239.50;5013247;28;20034;-80
2022/01/14 03:23:43;;;;;;;66.05;30.20;;;;;;;3.40;85.11;102249.78;5012272;28;20492;-81
2022/01/14 03:26:08;;;;;;;71.13;32.60;;;;;;;3.42;85.33;102242.03;5013229;28;20038;-80
2022/01/14 03:28:34;;;;;;;66.55;31.20;;;;;;;3.46;85.25;102233.56;5012876;28;20049;-80
2022/01/14 03:30:59;;;;;;;65.60;29.20;;;;;;;3.48;85.17;102230.19;5014023;28;20513;-80
2022/01/14 03:33:24;;;;;;;70.10;31.10;;;;;;;3.45;85.25;102237.84;5012651;28;20044;-80
2022/01/14 03:35:50;;;;;;;62.60;30.42;;;;;;;3.47;85.45;102236.22;5013431;28;20112;-81
2022/01/14 03:38:17;;;;;;;61.30;27.98;;;;;;;3.45;85.51;102235.25;5013495;28;20069;-80
2022/01/14 03:40:42;;;;;;;55.92;29.10;;;;;;;3.44;85.69;102241.28;5013998;28;20053;-80
2022/01/14 03:43:08;;;;;;;55.80;29.27;;;;;;;3.49;85.43;102239.81;5014125;28;20401;-80
2022/01/14 03:45:33;;;;;;;62.42;30.45;;;;;;;3.46;85.86;102233.56;5017406;28;20033;-80
2022/01/14 03:47:58;;;;;;;66.68;29.45;;;;;;;3.44;86.30;102240.41;5017232;28;20034;-80
2022/01/14 03:50:25;;;;;;;60.65;30.33;;;;;;;3.46;86.06;102233.56;5017583;28;20033;-81
2022/01/14 03:52:50;;;;;;;68.05;31.13;;;;;;;3.52;86.31;102241.69;5017548;28;20488;-80
2022/01/14 03:55:16;;;;;;;64.45;29.73;;;;;;;3.55;86.02;102227.88;5016566;28;20045;-80
2022/01/14 03:57:41;;;;;;;54.03;27.35;;;;;;;3.54;86.06;102220.84;5015369;28;20041;-79
2022/01/14 04:00:08;;;;;;;57.45;27.55;;;;;;;3.54;86.29;102210.41;5015180;28;20042;-77
2022/01/14 04:02:42;;;;;;;56.80;27.67;;;;;;;3.59;86.66;102201.09;5014096;28;20428;-76
2022/01/14 04:05:08;;;;;;;59.25;27.55;;;;;;;3.62;86.61;102206.47;5014375;28;20029;-77
2022/01/14 04:07:33;;;;;;;63.08;28.85;;;;;;;3.64;86.40;102216.19;5022031;28;20044;-77
2022/01/14 04:09:59;;;;;;;57.15;27.02;;;;;;;3.63;86.53;102210.88;5014233;28;20042;-77
2022/01/14 04:12:46;;;;;;;61.83;28.73;;;;;;;3.59;86.53;102216.75;5014559;28;20038;-77
2022/01/14 04:17:58;;;;;;;65.55;29.48;;;;;;;3.45;87.29;102213.47;5014470;28;20049;-77
2022/01/14 04:20:24;;;;;;;59.67;29.50;;;;;;;3.45;87.90;102206.53;5021278;28;20127;-77
2022/01/14 04:22:49;;;;;;;63.30;31.73;;;;;;;3.50;87.63;102201.53;5014439;28;20042;-77
2022/01/14 04:25:15;;;;;;;60.03;28.30;;;;;;;3.51;88.08;102200.72;5014081;28;20037;-76
2022/01/14 04:27:41;;;;;;;59.30;28.08;;;;;;;3.48;87.97;102188.44;5014239;28;20040;-77
2022/01/14 04:30:07;;;;;;;61.42;28.65;;;;;;;3.56;87.59;102183.56;5013957;28;20130;-77
2022/01/14 04:32:32;;;;;;;57.92;29.10;;;;;;;3.58;87.77;102184.53;5014601;28;20080;-77
2022/01/14 04:34:58;;;;;;;56.75;26.95;;;;;;;3.49;87.93;102192.81;5013729;28;20408;-76
2022/01/14 04:37:23;;;;;;;62.50;29.08;;;;;;;3.49;88.06;102189.31;5014026;28;20041;-76
2022/01/14 04:39:48;;;;;;;59.20;27.20;;;;;;;3.50;88.06;102183.28;5014508;28;20124;-76
2022/01/14 04:42:14;;;;;;;80.43;30.17;;;;;;;3.49;88.27;102171.94;5022198;28;20045;-76
2022/01/14 04:44:39;;;;;;;58.80;27.38;;;;;;;3.48;88.22;102183.22;5022256;28;20038;-76
2022/01/14 04:47:17;;;;;;;61.22;28.10;;;;;;;3.50;88.20;102184.16;5015850;28;20408;-77
2022/01/14 04:49:43;;;;;;;58.53;27.52;;;;;;;3.53;88.44;102183.41;5013132;28;20049;-77
2022/01/14 04:52:08;;;;;;;59.42;26.27;;;;;;;3.49;88.14;102186.72;5014308;28;20034;-77
2022/01/14 04:54:35;;;;;;;53.92;26.60;;;;;;;3.44;88.88;102186.47;5016665;28;20042;-76
2022/01/14 04:57:01;;;;;;;60.30;27.90;;;;;;;3.46;89.12;102177.00;5012590;28;20037;-76
2022/01/14 04:59:26;;;;;;;59.05;28.55;;;;;;;3.47;88.84;102173.56;5014159;28;20486;-77
2022/01/14 05:01:51;;;;;;;62.85;28.63;;;;;;;3.55;88.85;102171.34;5012072;28;20424;-77
2022/01/14 05:04:16;;;;;;;65.32;28.73;;;;;;;3.57;88.64;102174.03;5011727;28;20424;-77
2022/01/14 05:06:46;;;;;;;62.30;29.58;;;;;;;3.44;88.85;102178.66;5012928;28;20069;-77
2022/01/14 05:09:21;;;;;;;66.22;29.65;;;;;;;3.48;88.98;102175.38;5013564;28;20044;-77
2022/01/14 05:11:53;;;;;;;62.17;29.00;;;;;;;3.46;88.86;102177.00;5012356;28;20037;-77
2022/01/14 05:14:18;;;;;;;54.72;26.35;;;;;;;3.43;88.74;102179.47;5021042;28;20500;-76
2022/01/14 05:16:44;;;;;;;58.30;28.05;;;;;;;3.45;88.96;102169.97;5013813;28;20049;-77
2022/01/14 05:19:09;;;;;;;61.40;27.48;;;;;;;3.42;89.44;102174.16;5012733;28;20041;-77
2022/01/14 05:21:34;;;;;;;68.85;29.85;;;;;;;3.46;89.42;102160.47;5012803;28;20030;-77
2022/01/14 05:24:00;;;;;;;61.35;29.25;;;;;;;3.51;88.86;102167.69;5010224;28;20038;-76
2022/01/14 05:26:25;;;;;;;61.97;27.58;;;;;;;3.48;89.49;102164.03;5012734;28;20120;-77
2022/01/14 05:28:51;;;;;;;56.78;27.38;;;;;;;3.49;88.87;102158.00;5011571;28;20036;-77
2022/01/14 05:31:16;;;;;;;64.47;27.67;;;;;;;3.53;89.05;102151.19;5011236;28;20061;-75
2022/01/14 05:33:45;;;;;;;58.13;27.95;;;;;;;3.50;88.69;102149.34;5011774;28;20034;-77
2022/01/14 05:36:11;;;;;;;60.97;26.30;;;;;;;3.50;89.26;102144.09;5010507;28;20133;-77
2022/01/14 05:38:36;;;;;;;62.67;28.90;;;;;;;3.47;89.48;102157.91;5011238;28;20042;-76
2022/01/14 05:41:02;;;;;;;61.38;28.75;;;;;;;3.53;88.65;102148.59;5010597;28;20053;-76
2022/01/14 05:43:27;;;;;;;64.35;27.73;;;;;;;3.55;88.73;102144.34;5010975;28;20057;-77
2022/01/14 05:45:53;;;;;;;64.35;29.48;;;;;;;3.41;89.09;102141.97;5009374;28;20527;-76
2022/01/14 05:48:18;;;;;;;60.08;27.15;;;;;;;3.42;89.17;102137.63;5011213;28;20033;-75
2022/01/14 05:50:43;;;;;;;65.03;29.05;;;;;;;3.47;89.23;102137.03;5011850;28;20038;-77
2022/01/14 05:53:09;;;;;;;59.17;28.08;;;;;;;3.47;89.12;102134.41;5012642;28;20029;-77
2022/01/14 05:55:34;;;;;;;55.97;26.92;;;;;;;3.46;89.16;102129.13;5012055;28;20042;-76
2022/01/14 05:57:59;;;;;;;61.30;27.90;;;;;;;3.43;89.02;102135.09;5012465;28;20042;-76
2022/01/14 06:00:25;;;;;;;53.88;26.80;;;;;;;3.41;88.66;102141.97;5012057;28;20040;-76
2022/01/14 06:02:51;;;;;;;52.58;25.77;;;;;;;3.38;88.71;102144.44;5011314;28;20042;-76
2022/01/14 06:05:18;;;;;;;61.05;26.65;;;;;;;3.43;88.67;102139.41;5012106;28;20044;-76
2022/01/14 06:07:43;;;;;;;58.20;27.85;;;;;;;3.41;88.18;102138.47;5012080;28;20077;-76
2022/01/14 06:10:09;;;;;;;59.75;28.73;;;;;;;3.38;88.05;102135.69;5012320;28;20131;-76
2022/01/14 06:12:35;;;;;;;57.30;27.42;;;;;;;3.42;88.16;102133.28;5012275;28;20034;-76
2022/01/14 06:15:03;;;;;;;59.13;27.38;;;;;;;3.44;88.17;102125.56;5010758;28;20038;-76
2022/01/14 06:17:28;;;;;;;55.90;26.65;;;;;;;3.40;87.41;102131.44;5011710;28;20038;-76
2022/01/14 06:19:54;;;;;;;56.03;27.45;;;;;;;3.37;87.84;102136.50;5012326;28;20677;-76
2022/01/14 06:22:19;;;;;;;54.78;27.73;;;;;;;3.42;87.81;102138.53;5012106;28;20033;-76
2022/01/14 06:24:44;;;;;;;51.30;25.48;;;;;;;3.39;88.11;102122.72;5011221;28;20046;-76
2022/01/14 06:27:10;;;;;;;50.63;25.88;;;;;;;3.37;88.10;102119.13;5012157;28;20069;-76
2022/01/14 06:29:35;;;;;;;58.20;27.73;;;;;;;3.32;88.20;102120.63;5012040;28;20087;-76
2022/01/14 06:32:00;;;;;;;56.58;27.20;;;;;;;3.37;88.18;102110.41;5012046;28;20088;-76
2022/01/14 06:34:26;;;;;;;56.00;27.77;;;;;;;3.30;88.52;102122.25;5011685;28;20036;-76
2022/01/14 06:36:51;;;;;;;56.05;26.00;;;;;;;3.34;87.97;102113.75;5011785;28;20030;-76
2022/01/14 06:39:17;;;;;;;53.80;26.02;;;;;;;3.31;88.38;102116.22;5011946;28;20038;-76
2022/01/14 06:41:42;;;;;;;50.65;26.13;;;;;;;3.37;87.75;102108.69;5011911;28;20081;-76
2022/01/14 06:44:07;;;;;;;51.20;26.25;;;;;;;3.29;88.61;102110.03;5011742;28;20037;-76
2022/01/14 06:46:33;;;;;;;53.63;26.13;;;;;;;3.27;88.21;102111.66;5011372;28;20034;-76
2022/01/14 06:48:58;;;;;;;49.10;25.35;;;;;;;3.31;88.12;102112.72;5011298;28;20037;-76
2022/01/14 06:51:23;;;;;;;54.38;25.70;;;;;;;3.19;88.50;102102.56;5011631;28;20040;-76
2022/01/14 06:53:49;;;;;;;49.75;25.42;;;;;;;3.21;88.43;102095.72;5010360;28;20140;-76
2022/01/14 06:56:16;;;;;;;49.65;26.40;;;;;;;3.22;88.89;102093.19;5006817;28;20128;-76
2022/01/14 06:58:41;;;;;;;51.45;24.75;;;;;;;3.21;88.35;102087.91;5005543;28;20103;-76
2022/01/14 07:01:07;;;;;;;51.35;26.38;;;;;;;3.15;88.32;102085.88;5009355;28;20496;-76
2022/01/14 07:03:32;;;;;;;45.75;25.08;;;;;;;3.08;88.31;102075.97;5007528;28;20042;-76
2022/01/14 07:05:58;;;;;;;48.60;25.27;;;;;;;3.05;88.67;102076.72;5007274;28;20416;-76
2022/01/14 07:08:23;;;;;;;55.97;27.15;;;;;;;3.11;88.72;102090.88;5026250;28;20109;-76
2022/01/14 07:10:49;;;;;;;50.13;25.10;;;;;;;3.11;88.36;102077.84;5011321;28;20040;-76
2022/01/14 07:13:14;;;;;;;44.97;23.63;;;;;;;3.07;88.12;102089.84;5011331;28;20092;-76
2022/01/14 07:15:39;;;;;;;44.78;24.00;;;;;;;3.08;87.96;102089.00;5009874;28;20034;-76
2022/01/14 07:18:05;;;;;;;46.80;23.88;;;;;;;3.10;88.48;102091.72;5009237;28;20049;-76
2022/01/14 07:20:30;;;;;;;45.92;23.38;;;;;;;3.15;87.64;102106.75;5009046;28;20038;-76
2022/01/14 07:22:55;;;;;;;44.55;22.42;;;;;;;3.08;88.09;102095.13;5011152;28;20036;-76
2022/01/14 07:25:21;;;;;;;46.17;23.77;;;;;;;3.11;87.86;102103.91;5010792;28;20029;-76
2022/01/14 07:27:47;;;;;;;45.85;22.55;;;;;;;3.05;87.44;102097.56;5011143;28;20472;-76
2022/01/14 07:30:15;;;;;;;39.85;21.50;;;;;;;3.05;87.51;102108.00;5009739;28;20033;-76
2022/01/14 07:32:40;;;;;;;43.75;22.33;;;;;;;3.08;87.17;102105.56;5011260;28;20049;-76
2022/01/14 07:35:06;;;;;;;42.40;21.88;;;;;;;3.07;86.90;102089.84;5010789;28;20112;-76
2022/01/14 07:37:31;;;;;;;43.17;21.92;;;;;;;3.01;87.47;102103.47;5011054;28;20030;-76
2022/01/14 07:39:57;;;;;;;41.25;22.70;;;;;;;3.05;86.83;102100.19;5009635;28;20041;-76
2022/01/14 07:42:22;;;;;;;49.35;25.83;;;;;;;3.13;87.48;102094.47;5011073;28;20049;-76
2022/01/14 07:44:47;;;;;;;42.25;22.10;;;;;;;3.10;87.09;102094.31;5010797;28;20095;-76
2022/01/14 07:47:13;;;;;;;40.83;22.48;;;;;;;3.06;85.86;102099.34;5011046;28;20118;-76
2022/01/14 07:49:38;;;;;;;48.53;23.63;;;;;;;3.02;86.27;102101.75;5011136;28;20517;-76
2022/01/14 07:52:04;;;;;;;36.35;20.10;;;;;;;3.12;85.68;102100.47;5011198;28;20532;-76
2022/01/14 07:54:30;;;;;;;35.58;20.52;;;;;;;3.08;85.49;102105.56;5006940;28;20045;-76
2022/01/14 07:56:58;;;;;;;36.50;21.48;;;;;;;3.11;85.04;102088.25;5010901;28;20381;-76
2022/01/14 07:59:26;;;;;;;39.53;20.73;;;;;;;3.15;84.95;102090.22;5010115;28;20038;-76
2022/01/14 08:01:58;;;;;;;37.60;19.73;;;;;;;3.14;84.72;102110.16;5010845;28;20042;-76
2022/01/14 08:04:24;;;;;;;34.45;19.85;;;;;;;3.19;84.24;102107.78;5005708;28;20038;-76
2022/01/14 08:06:52;;;;;;;37.40;20.98;;;;;;;3.14;84.62;102114.50;5010005;28;20486;-76
2022/01/14 08:09:18;;;;;;;36.80;20.88;;;;;;;3.16;84.56;102118.09;5010723;28;20119;-76
2022/01/14 08:11:45;;;;;;;39.13;21.52;;;;;;;3.12;84.93;102203.16;5010790;28;20065;-76
2022/01/14 08:14:10;;;;;;;41.45;21.85;;;;;;;3.08;85.29;102121.19;5010868;28;20042;-76
2022/01/14 08:16:36;;;;;;;43.22;21.83;;;;;;;3.13;85.41;102123.16;5010400;28;20531;-76
2022/01/14 08:19:01;;;;;;;40.33;22.95;;;;;;;3.19;84.97;102144.31;5009531;28;20042;-76
2022/01/14 08:21:26;;;;;;;40.08;22.67;;;;;;;3.20;84.94;102156.56;5010700;28;20041;-76
2022/01/14 08:23:52;;;;;;;40.60;23.38;;;;;;;3.16;84.98;102145.06;5008941;28;20084;-76
2022/01/14 08:26:17;;;;;;;46.03;24.67;;;;;;;3.24;85.54;102138.50;5008379;28;20048;-76
2022/01/14 08:28:43;;;;;;;43.97;23.67;;;;;;;3.18;85.11;102137.31;5008831;28;20034;-76
2022/01/14 08:31:08;;;;;;;42.58;22.67;;;;;;;3.16;86.05;102154.63;5013472;28;20057;-76
2022/01/14 08:33:33;;;;;;;44.60;22.25;;;;;;;3.23;85.78;102152.38;5014208;28;20045;-76
2022/01/14 08:35:59;;;;;;;47.92;25.98;;;;;;;3.21;86.07;102138.38;5013970;28;20038;-76
2022/01/14 08:38:25;;;;;;;44.80;25.10;;;;;;;3.26;86.08;102141.19;5021272;28;20045;-76
2022/01/14 08:40:50;;;;;;;44.95;22.13;;;;;;;3.20;86.28;102120.03;5010220;28;20046;-76
2022/01/14 08:43:16;;;;;;;48.20;23.83;;;;;;;3.26;86.00;102122.94;5009914;28;20052;-76
2022/01/14 08:45:41;;;;;;;48.00;25.52;;;;;;;3.21;86.56;102127.03;5013542;28;20041;-76
2022/01/14 08:48:07;;;;;;;50.65;24.83;;;;;;;3.13;86.93;102125.75;5013816;28;20497;-76
2022/01/14 08:50:35;;;;;;;50.97;26.88;;;;;;;3.18;86.98;102142.53;5013882;28;20108;-76
2022/01/14 08:53:01;;;;;;;50.35;24.90;;;;;;;3.22;87.22;102149.69;5013807;28;20038;-76
2022/01/14 08:55:27;;;;;;;47.60;24.95;;;;;;;3.24;86.87;102159.38;5011563;28;20038;-76
2022/01/14 08:57:53;;;;;;;46.08;24.23;;;;;;;3.14;87.61;102146.69;5012509;28;20034;-76
2022/01/14 09:00:22;;;;;;;54.75;26.13;;;;;;;3.23;87.51;102146.28;5013158;28;20060;-76
2022/01/14 09:02:48;;;;;;;51.17;25.30;;;;;;;3.18;87.80;102143.44;5010101;28;20042;-76
2022/01/14 09:05:13;;;;;;;52.42;25.15;;;;;;;3.22;87.86;102144.47;5008759;28;20089;-76
2022/01/14 09:07:39;;;;;;;55.25;25.67;;;;;;;3.23;88.19;102155.00;5011920;28;20457;-76
2022/01/14 09:10:06;;;;;;;55.72;26.80;;;;;;;3.23;88.54;102147.16;5003949;28;20505;-76
2022/01/14 09:12:33;;;;;;;59.80;28.60;;;;;;;3.26;88.58;102147.31;5013462;28;20048;-76
2022/01/14 09:15:00;;;;;;;53.67;26.27;;;;;;;3.22;89.17;102147.06;5011978;28;20048;-76
2022/01/14 09:17:25;;;;;;;55.70;27.60;;;;;;;3.17;89.45;102140.72;5010440;28;20060;-76
2022/01/14 09:19:51;;;;;;;54.50;27.08;;;;;;;3.13;90.01;102152.75;5007829;28;20046;-76
2022/01/14 09:22:18;;;;;;;53.67;27.45;;;;;;;3.18;90.07;102150.38;5009768;28;20528;-76
2022/01/14 09:24:45;;;;;;;53.42;26.83;;;;;;;3.10;90.84;102136.06;5011004;28;20033;-76
2022/01/14 09:27:11;;;;;;;52.42;25.85;;;;;;;3.06;90.37;102138.47;5011597;28;20037;-76
2022/01/14 09:29:37;;;;;;;54.72;27.00;;;;;;;3.14;90.57;102124.94;5011330;28;20040;-76
2022/01/14 09:32:02;;;;;;;52.58;27.98;;;;;;;3.19;90.28;102136.50;5011231;28;20030;-76
2022/01/14 09:34:28;;;;;;;57.60;27.48;;;;;;;3.23;89.84;102135.84;5011482;28;20215;-76
2022/01/14 09:36:53;;;;;;;51.88;27.30;;;;;;;3.21;90.34;102122.72;5012547;28;20603;-76
2022/01/14 09:39:19;;;;;;;58.15;27.10;;;;;;;3.18;90.16;102132.09;5012841;28;20065;-76
2022/01/14 09:41:46;;;;;;;54.25;25.65;;;;;;;3.20;89.54;102127.88;5012337;28;20038;-76
2022/01/14 09:44:14;;;;;;;50.40;25.50;;;;;;;3.24;89.33;102111.53;5006174;28;20045;-76
2022/01/14 09:46:39;;;;;;;49.28;26.23;;;;;;;3.21;88.80;102132.25;5010065;28;20034;-76
2022/01/14 09:49:05;;;;;;;48.15;25.00;;;;;;;3.15;89.09;102116.31;5011516;28;20388;-76
2022/01/14 09:51:30;;;;;;;50.00;25.67;;;;;;;3.20;88.02;102102.66;5008202;28;20030;-77
2022/01/14 09:53:55;;;;;;;47.90;24.63;;;;;;;3.32;88.26;102104.97;5012191;28;20038;-76
2022/01/14 09:56:23;;;;;;;46.53;24.25;;;;;;;3.45;87.65;102115.16;5019529;28;20090;-76
2022/01/14 09:58:49;;;;;;;52.38;26.38;;;;;;;3.47;86.59;102147.47;5012575;28;20033;-77
2022/01/14 10:01:17;;;;;;;50.22;24.35;;;;;;;3.49;86.29;102122.34;5012348;28;20077;-76
2022/01/14 10:03:50;;;;;;;42.03;24.17;;;;;;;3.54;85.90;102140.84;5012651;28;20061;-76
2022/01/14 10:06:37;;;;;;;50.65;26.83;;;;;;;3.55;86.15;102123.47;5012167;28;20088;-76
2022/01/14 10:09:10;;;;;;;50.17;25.90;;;;;;;3.58;85.63;102121.00;5009870;28;20053;-76
2022/01/14 10:11:42;;;;;;;39.60;23.85;;;;;;;3.69;84.55;102138.03;5012002;28;20388;-76
2022/01/14 10:14:17;;;;;;;50.78;25.17;;;;;;;3.60;85.33;102111.53;5012281;28;20523;-76
2022/01/14 10:16:44;;;;;;;47.65;25.52;;;;;;;3.75;85.15;102107.03;5010643;28;20690;-76
2022/01/14 10:19:39;;;;;;;44.88;24.63;;;;;;;3.87;84.54;102118.03;5012277;28;20120;-76
2022/01/14 10:22:38;;;;;;;44.75;24.20;;;;;;;3.96;83.44;102112.34;5011574;28;20523;-76
2022/01/14 10:25:09;;;;;;;43.17;23.55;;;;;;;4.09;82.74;102116.41;5011384;28;20603;-76
2022/01/14 10:27:42;;;;;;;42.13;21.90;;;;;;;4.06;82.42;102109.34;5012088;28;20033;-76
2022/01/14 10:30:07;;;;;;;43.85;24.40;;;;;;;3.85;82.98;102116.16;5008162;28;20128;-76
2022/01/14 10:32:34;;;;;;;43.25;24.65;;;;;;;4.00;82.78;102103.81;5019151;28;20073;-76
2022/01/14 10:35:10;;;;;;;43.15;23.92;;;;;;;3.96;83.24;102099.28;5011202;28;20044;-76
2022/01/14 10:37:36;;;;;;;47.38;24.67;;;;;;;3.97;82.95;102097.56;5020679;28;20042;-76
2022/01/14 10:40:05;;;;;;;43.83;23.40;;;;;;;3.98;82.78;102105.44;5011944;28;20030;-76
2022/01/14 10:42:36;;;;;;;45.42;24.10;;;;;;;4.09;83.03;102108.59;5005583;28;20030;-76
2022/01/14 10:45:27;;;;;;;40.80;21.45;;;;;;;4.12;82.95;102098.25;5008096;28;20572;-76
2022/01/14 10:48:01;;;;;;;41.58;22.83;;;;;;;4.11;82.58;102091.22;5009907;28;20062;-76
2022/01/14 10:50:36;;;;;;;45.08;22.88;;;;;;;4.08;82.91;102101.56;5004909;28;20149;-76
2022/01/14 10:53:08;;;;;;;45.17;22.73;;;;;;;4.11;82.35;102086.00;5007055;28;20038;-76
2022/01/14 10:55:36;;;;;;;43.67;24.27;;;;;;;4.23;82.31;102102.25;5010623;28;20506;-76
2022/01/14 10:58:06;;;;;;;40.80;22.52;;;;;;;4.27;82.20;102106.78;5010237;28;20042;-76
2022/01/14 11:00:40;;;;;;;43.80;24.08;;;;;;;4.28;81.99;102087.66;5011442;28;20038;-76
2022/01/14 11:03:05;;;;;;;42.10;22.75;;;;;;;4.23;82.16;102102.25;5009841;28;20132;-76
2022/01/14 11:05:32;;;;;;;43.08;23.73;;;;;;;4.26;82.24;102091.03;5007735;28;20064;-76
2022/01/14 11:07:57;;;;;;;48.83;25.75;;;;;;;4.23;82.88;102090.91;5009500;28;20042;-76
2022/01/14 11:10:35;;;;;;;41.15;22.63;;;;;;;4.33;82.49;102093.09;5008784;28;20049;-76
2022/01/14 11:13:02;;;;;;;41.97;22.38;;;;;;;4.29;82.81;102086.81;5008468;28;20030;-76
2022/01/14 11:15:30;;;;;;;45.38;23.58;;;;;;;4.32;82.66;102079.16;5008386;28;20037;-76
2022/01/14 11:17:59;;;;;;;44.08;24.83;;;;;;;4.30;82.70;102078.19;5009297;28;20639;-76
2022/01/14 11:20:33;;;;;;;41.03;22.73;;;;;;;4.32;82.90;102065.16;5019017;28;20105;-76
2022/01/14 11:23:15;;;;;;;41.80;23.75;;;;;;;4.39;82.59;102064.59;5015584;28;20129;-76
2022/01/14 11:25:43;;;;;;;48.53;24.15;;;;;;;4.38;82.96;102055.00;5011876;28;20125;-76
2022/01/14 11:28:08;;;;;;;45.10;23.35;;;;;;;4.46;82.88;102064.06;5011855;28;20034;-76
2022/01/14 11:30:39;;;;;;;47.03;24.05;;;;;;;4.43;83.20;102060.38;5011231;28;20084;-75
2022/01/14 11:33:07;;;;;;;44.40;22.95;;;;;;;4.46;83.55;102047.47;5007228;28;20064;-76
2022/01/14 11:35:35;;;;;;;38.90;22.60;;;;;;;4.57;83.09;102046.22;5008641;28;20026;-76
2022/01/14 11:38:01;;;;;;;43.90;22.45;;;;;;;4.55;83.07;102042.63;5010362;28;20034;-76
2022/01/14 11:40:46;;;;;;;46.03;23.00;;;;;;;4.60;83.33;102031.53;5010044;28;20041;-75
2022/01/14 11:43:40;;;;;;;47.22;23.52;;;;;;;4.69;82.80;102024.91;5006772;28;20042;-76